createdAt,value
2019-02-28T00:01:24.891Z,42.00
2019-02-28T00:14:32.346Z,42.20
2019-02-28T00:27:39.735Z,42.20
2019-02-28T00:41:03.648Z,42.40
2019-02-28T01:21:07.218Z,42.60
2019-02-28T01:34:14.545Z,42.60
2019-02-28T01:47:21.871Z,42.70
2019-02-28T02:00:29.283Z,42.70
2019-02-28T02:13:36.849Z,42.80
2019-02-28T02:27:00.567Z,42.80
2019-02-28T02:40:24.291Z,42.80
2019-02-28T02:53:46.103Z,42.90
2019-02-28T03:07:09.065Z,42.90
2019-02-28T03:20:31.871Z,42.90
2019-02-28T03:33:54.560Z,42.90
2019-02-28T03:47:19.302Z,43.00
2019-02-28T04:00:40.182Z,43.00
2019-02-28T04:14:03.037Z,43.00
2019-02-28T04:27:25.829Z,43.00
2019-02-28T04:40:48.749Z,43.20
2019-02-28T04:54:11.466Z,43.20
2019-02-28T05:07:34.399Z,43.30
2019-02-28T05:20:57.105Z,43.20
2019-02-28T05:34:19.907Z,43.30
2019-02-28T06:00:44.490Z,43.30
2019-02-28T06:13:52.725Z,43.30
2019-02-28T06:26:59.156Z,43.40
2019-02-28T06:40:06.436Z,43.60
2019-02-28T07:06:16.670Z,44.50
2019-02-28T07:19:26.277Z,45.40
2019-02-28T07:32:34.257Z,46.10
2019-02-28T07:45:39.055Z,45.80
2019-02-28T07:58:46.467Z,47.30
2019-02-28T08:12:09.888Z,41.10
2019-02-28T08:25:32.638Z,42.80
2019-02-28T08:38:55.508Z,43.50
2019-02-28T09:05:25.663Z,44.30
2019-02-28T09:18:27.406Z,43.70
2019-02-28T09:31:38.503Z,46.80
2019-02-28T09:44:42.082Z,42.60
2019-02-28T09:57:50.446Z,43.00
2019-02-28T10:11:13.311Z,43.10
2019-02-28T10:24:36.099Z,42.60
2019-02-28T10:37:59.067Z,43.00
2019-02-28T10:51:21.713Z,42.80
2019-02-28T11:04:44.550Z,43.00
2019-02-28T11:18:08.951Z,43.00
2019-02-28T11:31:30.179Z,42.50
2019-02-28T11:44:52.980Z,40.90
2019-02-28T11:58:16.996Z,44.10
2019-02-28T12:11:38.631Z,43.70
2019-02-28T12:25:04.411Z,43.60
2019-02-28T12:38:25.552Z,43.70
2019-02-28T12:51:47.094Z,43.60
2019-02-28T13:05:14.704Z,43.70
2019-02-28T13:18:32.732Z,43.70
2019-02-28T13:44:57.156Z,43.80
2019-02-28T13:58:04.444Z,43.90
2019-02-28T14:11:11.743Z,44.40
2019-02-28T14:24:18.982Z,44.20
2019-02-28T14:37:26.330Z,45.00
2019-02-28T14:50:53.734Z,44.50
2019-02-28T15:04:13.322Z,44.40
2019-02-28T15:17:38.716Z,44.30
2019-02-28T15:30:59.035Z,44.20
2019-02-28T15:44:21.769Z,44.10
2019-02-28T15:57:44.580Z,44.00
2019-02-28T16:11:07.433Z,44.00
2019-02-28T16:24:30.219Z,43.90
2019-02-28T16:37:53.025Z,43.90
2019-02-28T16:51:15.855Z,43.70
2019-02-28T17:04:38.649Z,43.90
2019-02-28T17:31:03.212Z,44.00
2019-02-28T17:44:10.530Z,44.10
2019-02-28T18:10:24.350Z,44.80
2019-02-28T18:23:29.858Z,46.90
2019-02-28T18:49:41.913Z,48.00
2019-02-28T19:02:49.250Z,48.50
2019-02-28T19:15:57.119Z,48.30
2019-02-28T19:29:04.581Z,48.80
2019-02-28T19:42:28.732Z,48.70
2019-02-28T19:55:51.453Z,49.30
2019-02-28T20:22:16.138Z,48.80
2019-02-28T20:35:26.550Z,49.00
2019-02-28T20:48:31.033Z,49.10
2019-02-28T21:01:38.517Z,49.50
2019-02-28T21:15:02.828Z,50.00
2019-02-28T21:28:25.629Z,50.20
2019-02-28T21:41:48.411Z,50.30
2019-02-28T22:08:12.898Z,50.70
2019-02-28T22:21:20.306Z,50.70
2019-02-28T22:34:27.586Z,50.50
2019-02-28T22:47:35.007Z,50.30
2019-02-28T23:00:42.300Z,50.20
2019-02-28T23:14:06.214Z,50.00
2019-02-28T23:27:29.119Z,50.00
2019-02-28T23:40:51.931Z,50.20
2019-02-28T23:54:14.675Z,50.30
